Time;durP1;ratioP1;P1;durP2;ratioP2;P2;SDS_P1;SDS_P2;PMS_P1;PMS_P2;Temp;Humidity;BMP_temperature;BMP_pressure;BME280_temperature;BME280_humidity;BME280_pressure;Samples;Min_cycle;Max_cycle;Signal;HPM_P1;HPM_P2
2023/10/18 00:01:29;;;;;;;6.40;4.63;;;6.10;99.90;;;;;;5020645;28;20128;-57
2023/10/18 00:03:56;;;;;;;7.38;4.90;;;6.00;99.90;;;;;;5040834;28;20033;-57
2023/10/18 00:06:26;;;;;;;8.40;4.75;;;6.00;99.90;;;;;;5039540;28;20045;-58
2023/10/18 00:08:58;;;;;;;9.82;4.72;;;5.90;99.90;;;;;;5039607;28;20123;-56
2023/10/18 00:11:25;;;;;;;7.45;4.80;;;6.00;99.90;;;;;;5033023;28;20518;-58
2023/10/18 00:13:53;;;;;;;6.65;4.88;;;5.90;99.90;;;;;;5032284;28;20044;-57
2023/10/18 00:16:21;;;;;;;8.40;5.22;;;5.90;99.90;;;;;;5017355;28;20914;-58
2023/10/18 00:18:47;;;;;;;7.15;4.78;;;5.90;99.90;;;;;;5043241;28;20041;-58
2023/10/18 00:21:13;;;;;;;10.30;5.50;;;5.90;99.90;;;;;;5039503;28;20037;-57
2023/10/18 00:23:39;;;;;;;12.20;5.60;;;5.90;99.90;;;;;;5037173;28;20037;-58
2023/10/18 00:26:09;;;;;;;8.90;5.80;;;5.90;99.90;;;;;;5036426;28;20491;-57
2023/10/18 00:28:39;;;;;;;9.38;5.93;;;5.90;99.90;;;;;;5027964;28;20045;-57
2023/10/18 00:31:20;;;;;;;9.20;5.95;;;6.00;99.90;;;;;;5037460;28;20098;-56
2023/10/18 00:33:46;;;;;;;8.50;5.63;;;5.90;99.90;;;;;;5040595;28;20045;-57
2023/10/18 00:36:16;;;;;;;14.45;6.40;;;5.90;99.90;;;;;;5039901;28;20053;-57
2023/10/18 00:38:42;;;;;;;13.75;6.13;;;5.90;99.90;;;;;;5016177;28;20047;-58
2023/10/18 00:41:22;;;;;;;10.85;6.28;;;5.90;99.90;;;;;;5032614;28;20349;-56
2023/10/18 00:43:50;;;;;;;9.18;6.25;;;5.90;99.90;;;;;;5016242;28;20033;-57
2023/10/18 00:46:16;;;;;;;11.55;6.57;;;5.90;99.90;;;;;;5001335;28;20045;-58
2023/10/18 00:48:44;;;;;;;13.98;7.28;;;5.90;99.90;;;;;;5040778;28;20029;-57
2023/10/18 00:51:18;;;;;;;12.80;7.43;;;5.90;99.90;;;;;;5029611;28;20538;-57
2023/10/18 00:53:48;;;;;;;11.18;7.35;;;5.90;99.90;;;;;;5016033;28;20084;-58
2023/10/18 00:56:15;;;;;;;12.73;7.55;;;5.80;99.90;;;;;;5037693;28;20140;-57
2023/10/18 00:58:42;;;;;;;12.50;8.38;;;5.90;99.90;;;;;;5036156;28;20087;-56
2023/10/18 01:01:11;;;;;;;15.30;8.35;;;5.90;99.90;;;;;;5040268;28;20076;-58
2023/10/18 01:03:38;;;;;;;11.85;7.93;;;5.90;99.90;;;;;;5029837;28;20055;-57
2023/10/18 01:06:21;;;;;;;15.02;8.73;;;5.90;99.90;;;;;;5036030;28;20048;-56
2023/10/18 01:08:48;;;;;;;13.27;8.38;;;5.80;99.90;;;;;;5030873;28;20617;-57
2023/10/18 01:11:15;;;;;;;12.77;8.35;;;5.80;99.90;;;;;;5028201;28;20451;-58
2023/10/18 01:13:42;;;;;;;16.27;9.25;;;5.80;99.90;;;;;;5040176;28;20499;-58
2023/10/18 01:16:21;;;;;;;18.25;8.65;;;5.80;99.90;;;;;;5013542;28;20079;-58
2023/10/18 01:18:55;;;;;;;15.48;9.05;;;5.80;99.90;;;;;;5040659;28;20045;-57
2023/10/18 01:21:22;;;;;;;19.00;8.77;;;5.80;99.90;;;;;;5036770;28;20136;-58
2023/10/18 01:23:53;;;;;;;13.05;9.02;;;5.70;99.90;;;;;;5035385;28;20126;-57
2023/10/18 01:26:23;;;;;;;13.15;10.07;;;5.80;99.90;;;;;;5031935;28;20037;-58
2023/10/18 01:28:54;;;;;;;14.38;10.07;;;5.70;99.90;;;;;;5037744;28;20043;-58
2023/10/18 01:31:21;;;;;;;16.67;10.07;;;5.70;99.90;;;;;;5037512;28;20132;-58
2023/10/18 01:33:48;;;;;;;18.73;10.43;;;5.70;99.90;;;;;;5042380;28;20041;-57
2023/10/18 01:36:17;;;;;;;17.67;10.18;;;5.70;99.90;;;;;;5032241;28;20390;-56
2023/10/18 01:38:52;;;;;;;18.65;10.52;;;5.70;99.90;;;;;;5030646;28;20065;-56
2023/10/18 01:41:51;;;;;;;22.15;10.82;;;5.70;99.90;;;;;;5036236;28;20407;-57
2023/10/18 01:44:10;;;;;;;18.15;10.30;;;5.70;99.90;;;;;;5024845;28;20122;-58
2023/10/18 01:46:50;;;;;;;15.55;10.68;;;5.60;99.90;;;;;;5019512;28;20045;-58
2023/10/18 01:49:17;;;;;;;17.75;10.55;;;5.70;99.90;;;;;;5039493;28;20045;-58
2023/10/18 01:51:47;;;;;;;16.45;11.30;;;5.60;99.90;;;;;;5038897;28;20041;-57
2023/10/18 01:54:15;;;;;;;16.13;10.50;;;5.70;99.90;;;;;;5036319;28;20518;-57
2023/10/18 01:56:47;;;;;;;18.50;11.23;;;5.70;99.90;;;;;;5035795;28;20099;-58
2023/10/18 01:59:19;;;;;;;18.10;12.02;;;5.60;99.90;;;;;;5034421;28;20090;-58
2023/10/18 02:01:47;;;;;;;19.02;11.75;;;5.60;99.90;;;;;;5038389;28;20050;-58
2023/10/18 02:04:25;;;;;;;18.25;11.30;;;5.60;99.90;;;;;;5033421;28;20037;-58
2023/10/18 02:06:57;;;;;;;19.98;11.98;;;5.60;99.90;;;;;;5031811;28;20131;-58
2023/10/18 02:09:27;;;;;;;20.05;12.38;;;5.60;99.90;;;;;;5037421;28;20045;-58
2023/10/18 02:11:53;;;;;;;20.73;12.10;;;5.60;99.90;;;;;;5035740;28;20029;-57
2023/10/18 02:14:18;;;;;;;17.52;11.10;;;5.60;99.90;;;;;;5020636;28;20653;-56
2023/10/18 02:16:45;;;;;;;23.10;12.85;;;5.60;99.90;;;;;;5028456;28;20063;-58
2023/10/18 02:19:13;;;;;;;19.92;12.20;;;5.60;99.90;;;;;;5014127;28;20045;-58
2023/10/18 02:21:40;;;;;;;19.17;12.38;;;5.60;99.90;;;;;;5010315;28;20396;-57
2023/10/18 02:24:07;;;;;;;20.00;12.32;;;5.60;99.90;;;;;;5030646;28;20040;-58
2023/10/18 02:26:33;;;;;;;19.83;12.00;;;5.60;99.90;;;;;;5028600;28;20518;-57
2023/10/18 02:29:11;;;;;;;19.98;12.50;;;5.60;99.90;;;;;;5011714;28;20221;-56
2023/10/18 02:31:39;;;;;;;19.98;12.10;;;5.60;99.90;;;;;;5030204;28;20052;-57
2023/10/18 02:34:05;;;;;;;16.17;11.63;;;5.60;99.90;;;;;;5030008;28;20064;-57
2023/10/18 02:36:38;;;;;;;19.20;11.18;;;5.70;99.90;;;;;;5009476;28;20518;-58
2023/10/18 02:39:06;;;;;;;18.40;11.98;;;5.60;99.90;;;;;;5015545;28;20148;-58
2023/10/18 02:41:37;;;;;;;17.65;11.10;;;5.60;99.90;;;;;;5031160;28;20040;-57
2023/10/18 02:44:10;;;;;;;16.52;11.23;;;5.60;99.90;;;;;;5033720;28;20260;-58
2023/10/18 02:46:36;;;;;;;16.08;10.82;;;5.60;99.90;;;;;;5032283;28;20527;-58
2023/10/18 02:49:01;;;;;;;18.10;11.05;;;5.50;99.90;;;;;;5036577;28;20159;-58
2023/10/18 02:51:31;;;;;;;19.88;11.32;;;5.60;99.90;;;;;;5040979;28;20060;-57
2023/10/18 02:56:59;;;;;;;18.17;10.60;;;5.50;99.90;;;;;;5008718;28;20044;-56
2023/10/18 02:59:27;;;;;;;16.63;11.15;;;5.50;99.90;;;;;;5011862;28;20045;-58
2023/10/18 03:01:57;;;;;;;17.02;11.20;;;5.50;99.90;;;;;;5032006;28;20056;-58
2023/10/18 03:04:28;;;;;;;17.92;10.70;;;5.40;99.90;;;;;;5038400;28;20048;-57
2023/10/18 03:06:54;;;;;;;16.67;10.13;;;5.50;99.90;;;;;;5041334;28;20142;-57
2023/10/18 03:09:27;;;;;;;19.33;11.35;;;5.50;99.90;;;;;;5042545;28;20043;-57
2023/10/18 03:11:56;;;;;;;17.25;10.52;;;5.40;99.90;;;;;;5041235;28;20033;-58
2023/10/18 03:17:35;;;;;;;18.10;10.90;;;5.40;99.90;;;;;;5035880;28;20049;-58
2023/10/18 03:20:06;;;;;;;14.05;9.52;;;5.40;99.90;;;;;;5040666;28;20385;-59
2023/10/18 03:22:32;;;;;;;18.70;10.75;;;5.40;99.90;;;;;;5039196;28;20456;-57
2023/10/18 03:24:59;;;;;;;18.25;10.93;;;5.30;99.90;;;;;;5036921;28;20077;-59
2023/10/18 03:27:33;;;;;;;16.60;9.95;;;5.40;99.90;;;;;;5039469;28;20041;-59
2023/10/18 03:30:01;;;;;;;17.73;10.35;;;5.40;99.90;;;;;;5033240;28;20036;-59
2023/10/18 03:32:26;;;;;;;16.38;10.57;;;5.30;99.90;;;;;;5029160;28;20067;-59
2023/10/18 03:34:52;;;;;;;14.15;10.25;;;5.30;99.90;;;;;;5019835;28;20049;-59
2023/10/18 03:37:24;;;;;;;16.95;10.50;;;5.30;99.90;;;;;;5041074;28;20505;-57
2023/10/18 03:39:53;;;;;;;18.73;10.40;;;5.30;99.90;;;;;;5019670;28;20037;-57
2023/10/18 03:42:31;;;;;;;18.17;10.13;;;5.30;99.90;;;;;;5034850;28;20037;-60
2023/10/18 03:45:09;;;;;;;17.35;10.35;;;5.30;99.90;;;;;;5028055;28;20072;-55
2023/10/18 03:47:37;;;;;;;17.42;9.82;;;5.40;99.90;;;;;;5037753;28;20045;-59
2023/10/18 03:50:18;;;;;;;15.48;10.50;;;5.20;99.90;;;;;;5015153;28;20058;-59
2023/10/18 03:52:45;;;;;;;15.57;10.40;;;5.20;99.90;;;;;;5026295;28;20103;-58
2023/10/18 03:55:18;;;;;;;16.33;11.25;;;5.30;99.90;;;;;;5031282;28;20044;-58
2023/10/18 03:57:44;;;;;;;17.13;11.18;;;5.20;99.90;;;;;;5012807;28;20046;-58
2023/10/18 04:02:52;;;;;;;13.95;10.55;;;5.20;99.90;;;;;;5029847;28;20059;-58
2023/10/18 04:08:14;;;;;;;17.42;11.50;;;5.20;99.90;;;;;;5014021;28;20056;-57
2023/10/18 04:10:44;;;;;;;19.38;11.50;;;5.20;99.90;;;;;;5030711;28;20037;-58
2023/10/18 04:13:14;;;;;;;18.95;12.32;;;5.20;99.90;;;;;;5012124;28;20040;-59
2023/10/18 04:15:46;;;;;;;18.85;12.43;;;5.20;99.90;;;;;;5020958;28;20049;-57
2023/10/18 04:18:12;;;;;;;17.27;11.98;;;5.20;99.90;;;;;;5005431;28;20041;-60
2023/10/18 04:20:48;;;;;;;22.85;12.25;;;5.20;99.90;;;;;;5011803;28;20087;-59
2023/10/18 04:23:34;;;;;;;18.75;11.95;;;5.20;99.90;;;;;;5027648;28;20045;-60
2023/10/18 04:26:18;;;;;;;20.55;13.23;;;5.20;99.90;;;;;;5033166;28;20504;-57
2023/10/18 04:28:45;;;;;;;21.23;14.07;;;5.20;99.90;;;;;;5012167;28;20037;-58
2023/10/18 04:31:14;;;;;;;20.27;12.85;;;5.20;99.90;;;;;;5031370;28;20037;-60
2023/10/18 04:33:41;;;;;;;21.92;13.93;;;5.20;99.90;;;;;;5031691;28;20106;-60
2023/10/18 04:36:15;;;;;;;25.80;14.82;;;5.20;99.90;;;;;;4993729;28;1114781;-58
2023/10/18 04:38:44;;;;;;;23.23;14.65;;;5.20;99.90;;;;;;5031303;28;20045;-57
2023/10/18 04:43:49;;;;;;;22.23;14.20;;;5.20;99.90;;;;;;5027468;28;20057;-59
2023/10/18 04:46:15;;;;;;;20.65;13.93;;;5.20;99.90;;;;;;5040863;28;20052;-59
2023/10/18 04:51:27;;;;;;;24.42;14.55;;;5.20;99.90;;;;;;5042356;28;20392;-59
2023/10/18 04:53:59;;;;;;;22.13;14.88;;;5.10;99.90;;;;;;5030756;28;20041;-60
2023/10/18 04:56:34;;;;;;;25.63;15.03;;;5.10;99.90;;;;;;5030926;28;20033;-59
2023/10/18 04:59:06;;;;;;;21.08;14.00;;;5.10;99.90;;;;;;5029108;28;20033;-57
2023/10/18 05:01:36;;;;;;;26.23;15.13;;;5.10;99.90;;;;;;5035021;28;20498;-59
2023/10/18 05:06:56;;;;;;;23.83;15.10;;;5.10;99.90;;;;;;5015873;28;20045;-58
2023/10/18 05:09:30;;;;;;;21.65;14.82;;;5.10;99.90;;;;;;5035890;28;20099;-59
2023/10/18 05:17:23;;;;;;;23.20;15.23;;;5.10;99.90;;;;;;5039170;28;20136;-58
2023/10/18 05:19:50;;;;;;;23.83;15.07;;;5.10;99.90;;;;;;5041104;28;20094;-59
2023/10/18 05:22:23;;;;;;;21.83;14.35;;;5.10;99.90;;;;;;5044006;28;20045;-57
2023/10/18 05:27:38;;;;;;;21.85;15.20;;;5.10;99.90;;;;;;5030044;28;20462;-59
2023/10/18 05:30:26;;;;;;;22.88;15.35;;;5.10;99.90;;;;;;5013255;28;20132;-58
2023/10/18 05:33:03;;;;;;;28.08;16.38;;;5.10;99.90;;;;;;5021168;28;20045;-57
2023/10/18 05:35:34;;;;;;;26.60;15.80;;;5.00;99.90;;;;;;5027599;28;20625;-60
2023/10/18 05:38:06;;;;;;;30.20;16.42;;;5.00;99.90;;;;;;5033344;28;20049;-58
2023/10/18 05:40:45;;;;;;;28.95;17.05;;;5.00;99.90;;;;;;5038082;28;20090;-60
2023/10/18 05:43:22;;;;;;;22.92;15.32;;;5.00;99.90;;;;;;5032221;28;20078;-60
2023/10/18 05:45:56;;;;;;;27.48;16.42;;;5.00;99.90;;;;;;5027983;28;20051;-58
2023/10/18 05:48:23;;;;;;;26.85;16.40;;;5.00;99.90;;;;;;5036846;28;20061;-57
2023/10/18 05:50:49;;;;;;;25.33;17.23;;;5.00;99.90;;;;;;5021639;28;20072;-59
2023/10/18 05:53:19;;;;;;;28.70;17.33;;;5.00;99.90;;;;;;5029675;28;20327;-59
2023/10/18 05:55:53;;;;;;;26.67;17.35;;;5.00;99.90;;;;;;5014370;28;20045;-57
2023/10/18 05:58:28;;;;;;;28.08;17.23;;;5.00;99.90;;;;;;5037467;28;20578;-57
2023/10/18 06:00:57;;;;;;;27.48;16.85;;;5.00;99.90;;;;;;4993064;28;20049;-58
2023/10/18 06:03:26;;;;;;;28.90;17.05;;;5.00;99.90;;;;;;5022281;28;20045;-57
2023/10/18 06:05:56;;;;;;;27.05;16.95;;;5.00;99.90;;;;;;5036566;28;20050;-59
2023/10/18 06:08:23;;;;;;;29.75;17.75;;;4.90;99.90;;;;;;5038339;28;20041;-59
2023/10/18 06:11:06;;;;;;;25.33;16.35;;;5.00;99.90;;;;;;5015893;28;20049;-56
2023/10/18 06:13:36;;;;;;;27.88;17.55;;;5.00;99.90;;;;;;5011500;28;20132;-58
2023/10/18 06:16:18;;;;;;;27.10;17.58;;;5.00;99.90;;;;;;5021366;28;20072;-53
2023/10/18 06:18:48;;;;;;;29.98;17.17;;;5.00;99.90;;;;;;5015256;28;20104;-59
2023/10/18 06:21:18;;;;;;;28.05;18.38;;;5.00;99.90;;;;;;5017063;28;20136;-59
2023/10/18 06:23:54;;;;;;;28.20;16.98;;;5.00;99.90;;;;;;5020532;28;20040;-58
2023/10/18 06:26:33;;;;;;;28.05;17.85;;;5.00;99.90;;;;;;5022354;28;20417;-58
2023/10/18 06:29:08;;;;;;;29.50;17.95;;;5.00;99.90;;;;;;5013684;28;20178;-57
2023/10/18 06:31:43;;;;;;;27.08;17.30;;;5.00;99.90;;;;;;5032325;28;20511;-55
2023/10/18 06:34:17;;;;;;;29.02;18.35;;;5.00;99.90;;;;;;5031240;28;20700;-59
2023/10/18 06:36:52;;;;;;;27.67;17.65;;;5.00;99.90;;;;;;5031150;28;20105;-59
2023/10/18 06:39:25;;;;;;;27.17;16.92;;;5.10;99.90;;;;;;5032702;28;20051;-57
2023/10/18 06:41:59;;;;;;;;;;;5.10;99.90;;;;;;5031602;28;20041;-57
2023/10/18 06:44:29;;;;;;;28.50;17.33;;;5.10;99.90;;;;;;5023485;28;19971;-59
2023/10/18 06:46:57;;;;;;;32.88;18.00;;;5.10;99.90;;;;;;5017846;28;20075;-57
2023/10/18 06:49:23;;;;;;;31.05;17.65;;;5.10;99.90;;;;;;5024549;28;20051;-59
2023/10/18 06:51:52;;;;;;;32.35;18.92;;;5.20;99.90;;;;;;5025521;28;20045;-59
2023/10/18 06:54:30;;;;;;;32.20;17.90;;;5.20;99.90;;;;;;5020507;28;20480;-56
2023/10/18 06:57:15;;;;;;;28.88;18.45;;;5.20;99.90;;;;;;5021203;28;20041;-57
2023/10/18 06:59:48;;;;;;;29.77;18.38;;;5.20;99.90;;;;;;5024389;28;20041;-58
2023/10/18 07:02:14;;;;;;;;;;;5.20;99.90;;;;;;5014020;28;20486;-58
2023/10/18 07:04:51;;;;;;;28.63;17.27;;;5.30;99.90;;;;;;5028595;28;19917;-58
2023/10/18 07:07:20;;;;;;;29.88;18.27;;;5.30;99.90;;;;;;5033751;28;20071;-59
2023/10/18 07:09:52;;;;;;;25.45;17.15;;;5.20;99.90;;;;;;5035813;28;20107;-58
2023/10/18 07:12:26;;;;;;;29.42;18.13;;;5.30;99.90;;;;;;5021749;28;20037;-57
2023/10/18 07:14:55;;;;;;;28.02;18.10;;;5.40;99.90;;;;;;5031246;28;20045;-59
2023/10/18 07:17:24;;;;;;;28.15;17.55;;;5.40;99.90;;;;;;5025039;28;20609;-55
2023/10/18 07:19:55;;;;;;;34.85;17.65;;;5.50;99.90;;;;;;5030368;28;20044;-57
2023/10/18 07:22:27;;;;;;;30.02;17.95;;;5.50;99.90;;;;;;5029687;28;20041;-58
2023/10/18 07:24:59;;;;;;;28.25;16.98;;;5.50;99.90;;;;;;5031864;28;20420;-57
2023/10/18 07:27:29;;;;;;;29.95;17.50;;;5.60;99.90;;;;;;5038498;28;20061;-56
2023/10/18 07:30:01;;;;;;;26.98;17.08;;;5.60;99.90;;;;;;5034915;28;20039;-57
2023/10/18 07:32:28;;;;;;;27.98;17.52;;;5.70;99.90;;;;;;5033130;28;20435;-58
2023/10/18 07:34:57;;;;;;;27.67;17.58;;;5.70;99.90;;;;;;5038718;28;20056;-57
2023/10/18 07:37:24;;;;;;;30.15;17.02;;;5.80;99.90;;;;;;5033315;28;20540;-56
2023/10/18 07:39:56;;;;;;;26.98;16.67;;;5.80;99.90;;;;;;5017867;28;20043;-56
2023/10/18 07:42:34;;;;;;;24.95;16.33;;;5.90;99.90;;;;;;5036039;28;20512;-58
2023/10/18 07:45:04;;;;;;;26.45;16.65;;;5.90;99.90;;;;;;5025671;28;20045;-56
2023/10/18 07:47:32;;;;;;;26.45;16.70;;;5.90;99.90;;;;;;5029313;28;20582;-57
2023/10/18 07:50:00;;;;;;;31.88;17.10;;;6.00;99.90;;;;;;5034759;28;20570;-56
2023/10/18 07:52:26;;;;;;;24.40;15.73;;;6.10;99.90;;;;;;5018042;28;20442;-58
2023/10/18 07:54:52;;;;;;;26.17;15.73;;;6.10;99.90;;;;;;5033971;28;20041;-56
2023/10/18 07:57:18;;;;;;;26.75;17.13;;;6.20;99.90;;;;;;5038622;28;20048;-57
2023/10/18 07:59:47;;;;;;;25.67;16.98;;;6.30;99.90;;;;;;5042308;28;20044;-58
2023/10/18 08:02:15;;;;;;;25.63;16.02;;;6.30;99.90;;;;;;5043047;28;20037;-57
2023/10/18 08:04:42;;;;;;;27.23;16.88;;;6.30;99.90;;;;;;5025635;28;20053;-57
2023/10/18 08:07:15;;;;;;;25.58;16.63;;;6.50;99.90;;;;;;5039891;28;20049;-57
2023/10/18 08:09:43;;;;;;;23.35;16.08;;;6.60;99.90;;;;;;5039594;28;20040;-56
2023/10/18 08:12:20;;;;;;;24.42;15.65;;;6.60;99.90;;;;;;5035960;28;20041;-57
2023/10/18 08:14:47;;;;;;;23.30;14.80;;;6.70;99.90;;;;;;5002778;28;20048;-55
2023/10/18 08:17:29;;;;;;;22.95;14.85;;;6.80;99.90;;;;;;5015399;28;20102;-57
2023/10/18 08:22:45;;;;;;;22.70;14.82;;;7.00;99.90;;;;;;5040141;28;20041;-57
2023/10/18 08:25:49;;;;;;;24.98;16.20;;;7.00;99.90;;;;;;5038955;28;20121;-58
2023/10/18 08:28:06;;;;;;;23.03;15.10;;;7.10;99.90;;;;;;5038731;28;20041;-58
2023/10/18 08:33:06;;;;;;;24.05;15.27;;;7.20;99.90;;;;;;5041835;28;20056;-58
2023/10/18 08:35:33;;;;;;;28.20;15.77;;;7.20;99.90;;;;;;5038439;28;20490;-57
2023/10/18 08:38:01;;;;;;;27.38;15.70;;;7.30;99.90;;;;;;5032517;28;20056;-58
2023/10/18 08:40:28;;;;;;;25.38;15.20;;;7.30;99.90;;;;;;5031656;28;20033;-58
2023/10/18 08:43:12;;;;;;;24.42;15.43;;;7.30;99.90;;;;;;5031535;28;20041;-57
2023/10/18 08:45:46;;;;;;;21.60;14.77;;;7.40;99.90;;;;;;5030161;28;20150;-58
2023/10/18 08:48:27;;;;;;;22.00;14.80;;;7.40;99.90;;;;;;5031753;28;20159;-58
2023/10/18 08:50:55;;;;;;;24.67;14.90;;;7.50;99.90;;;;;;5041177;28;20052;-57
2023/10/18 08:53:25;;;;;;;21.80;13.93;;;7.50;99.90;;;;;;5032908;28;20048;-58
2023/10/18 08:55:52;;;;;;;23.10;13.95;;;7.50;99.90;;;;;;5036707;28;20052;-58
2023/10/18 08:58:20;;;;;;;22.08;14.13;;;7.60;99.90;;;;;;5033403;28;20526;-58
2023/10/18 09:03:14;;;;;;;20.92;13.65;;;7.70;99.90;;;;;;5040939;28;20091;-58
2023/10/18 09:05:41;;;;;;;21.17;13.52;;;7.80;99.90;;;;;;5040406;28;20220;-57
2023/10/18 09:08:14;;;;;;;21.42;13.02;;;7.90;99.90;;;;;;5043096;28;20079;-57
2023/10/18 09:15:49;;;;;;;20.05;12.88;;;8.10;99.90;;;;;;5011017;28;20056;-57
2023/10/18 09:18:14;;;;;;;17.90;11.77;;;8.10;99.90;;;;;;5033177;28;20084;-56
2023/10/18 09:20:40;;;;;;;18.33;12.60;;;8.20;99.90;;;;;;5016874;28;20140;-58
2023/10/18 09:23:14;;;;;;;18.73;11.32;;;8.30;99.90;;;;;;5043185;28;20087;-58
2023/10/18 09:25:48;;;;;;;18.52;11.40;;;8.30;99.90;;;;;;5021487;28;20502;-57
2023/10/18 09:28:32;;;;;;;18.23;11.68;;;8.40;99.90;;;;;;5040181;28;20154;-57
2023/10/18 09:31:10;;;;;;;18.10;11.65;;;8.40;99.90;;;;;;5040491;28;20483;-57
2023/10/18 09:33:48;;;;;;;19.00;11.77;;;8.50;99.90;;;;;;5037716;28;20081;-57
2023/10/18 09:36:24;;;;;;;14.50;10.63;;;8.60;99.90;;;;;;5033937;28;20128;-57
2023/10/18 09:38:55;;;;;;;15.82;11.18;;;8.70;99.90;;;;;;5030026;28;20049;-58
2023/10/18 09:41:21;;;;;;;19.73;11.68;;;8.70;99.90;;;;;;5030541;28;21391;-58
2023/10/18 09:43:47;;;;;;;15.05;10.90;;;8.80;99.90;;;;;;5024526;28;20050;-58
2023/10/18 09:46:14;;;;;;;17.23;11.13;;;8.90;99.90;;;;;;5032225;28;20055;-56
2023/10/18 09:48:44;;;;;;;18.92;11.63;;;9.00;99.90;;;;;;5032259;28;20479;-58
2023/10/18 09:51:15;;;;;;;18.67;11.38;;;9.00;99.90;;;;;;5033064;28;20048;-58
2023/10/18 09:53:49;;;;;;;15.77;10.98;;;9.10;99.90;;;;;;5033275;28;20099;-57
2023/10/18 09:56:27;;;;;;;16.75;12.45;;;9.20;99.90;;;;;;5032818;28;20075;-56
2023/10/18 09:59:11;;;;;;;17.33;11.55;;;9.20;99.90;;;;;;5031512;28;20075;-57
2023/10/18 10:04:14;;;;;;;18.08;12.45;;;9.40;99.90;;;;;;5032971;28;20102;-58
2023/10/18 10:06:47;;;;;;;14.35;11.48;;;9.60;99.90;;;;;;5026412;28;20049;-56
2023/10/18 10:09:14;;;;;;;17.15;11.25;;;9.60;99.90;;;;;;5024459;28;20849;-58
2023/10/18 10:11:46;;;;;;;19.60;12.00;;;9.70;99.90;;;;;;5032011;28;20045;-56
2023/10/18 10:14:17;;;;;;;16.73;11.18;;;9.70;99.90;;;;;;5031446;28;20083;-58
2023/10/18 10:16:54;;;;;;;14.65;11.18;;;9.80;99.90;;;;;;5030853;28;20124;-57
2023/10/18 10:19:29;;;;;;;16.77;11.60;;;9.80;99.90;;;;;;5038708;28;20040;-57
2023/10/18 10:22:04;;;;;;;13.88;10.35;;;9.90;99.90;;;;;;5037777;28;20047;-57
2023/10/18 10:24:42;;;;;;;17.02;11.10;;;10.00;99.90;;;;;;5038087;28;20045;-58
2023/10/18 10:32:58;;;;;;;14.93;10.55;;;10.20;99.90;;;;;;5014411;28;20059;-55
2023/10/18 10:35:25;;;;;;;13.90;9.95;;;10.20;99.90;;;;;;5030120;28;20053;-57
2023/10/18 10:37:50;;;;;;;16.30;9.77;;;10.30;99.90;;;;;;5024096;28;20478;-57
2023/10/18 10:43:08;;;;;;;14.32;9.75;;;10.50;99.90;;;;;;5022365;28;20562;-57
2023/10/18 10:48:17;;;;;;;13.32;9.80;;;10.70;99.90;;;;;;5030187;28;20053;-58
2023/10/18 10:51:20;;;;;;;12.30;8.77;;;10.80;99.90;;;;;;5031607;28;20088;-57
2023/10/18 10:53:58;;;;;;;10.57;8.40;;;10.90;99.90;;;;;;5029015;28;20045;-56
2023/10/18 10:56:26;;;;;;;12.32;9.02;;;10.90;99.90;;;;;;5034472;28;20178;-58
2023/10/18 10:59:09;;;;;;;13.60;9.65;;;11.10;99.90;;;;;;5023835;28;20052;-57
2023/10/18 11:04:29;;;;;;;12.48;8.90;;;11.30;99.90;;;;;;5015883;28;20049;-57
2023/10/18 11:07:08;;;;;;;15.85;8.95;;;11.30;99.90;;;;;;5018636;28;20076;-57
2023/10/18 11:09:38;;;;;;;13.05;9.23;;;11.40;99.90;;;;;;5036431;28;20131;-57
2023/10/18 11:12:12;;;;;;;12.43;8.63;;;11.40;99.90;;;;;;5043434;28;20551;-57
2023/10/18 11:14:38;;;;;;;12.65;8.38;;;11.50;99.90;;;;;;5043989;28;20041;-58
2023/10/18 11:19:51;;;;;;;12.50;8.90;;;11.50;99.90;;;;;;5040046;28;20499;-58
2023/10/18 11:22:20;;;;;;;11.60;8.65;;;11.50;99.90;;;;;;5045720;28;20040;-58
2023/10/18 11:24:49;;;;;;;11.40;8.65;;;11.50;99.90;;;;;;5044874;28;20371;-57
2023/10/18 11:27:22;;;;;;;14.25;8.98;;;11.50;99.90;;;;;;5035179;28;20281;-57
2023/10/18 11:30:00;;;;;;;12.77;8.55;;;11.50;99.90;;;;;;5033972;28;20369;-58
2023/10/18 11:32:28;;;;;;;15.25;9.27;;;11.50;99.90;;;;;;5014606;28;20500;-58
2023/10/18 11:35:09;;;;;;;13.48;8.63;;;11.60;99.90;;;;;;5032658;28;20701;-58
2023/10/18 11:37:40;;;;;;;12.43;8.40;;;11.50;99.90;;;;;;5037036;28;20042;-58
2023/10/18 11:40:15;;;;;;;14.60;8.88;;;11.60;99.90;;;;;;5036360;28;20047;-59
2023/10/18 11:43:07;;;;;;;14.50;8.40;;;11.70;99.90;;;;;;5034796;28;20415;-59
2023/10/18 11:45:34;;;;;;;13.07;8.52;;;11.70;99.90;;;;;;5005424;28;20183;-59
2023/10/18 11:48:02;;;;;;;13.52;8.43;;;11.70;99.90;;;;;;5014826;28;20407;-57
2023/10/18 11:50:47;;;;;;;9.77;8.20;;;11.70;99.90;;;;;;5008718;28;20114;-59
2023/10/18 11:53:15;;;;;;;13.43;8.38;;;11.70;99.90;;;;;;5034103;28;20332;-59
2023/10/18 11:55:58;;;;;;;14.07;8.95;;;11.70;99.90;;;;;;5032232;28;20132;-59
2023/10/18 11:58:25;;;;;;;;;;;11.70;99.90;;;;;;5034644;28;20538;-59
2023/10/18 12:01:01;;;;;;;10.80;7.80;;;11.70;99.90;;;;;;5037653;28;19971;-59
2023/10/18 12:03:27;;;;;;;16.95;8.15;;;11.70;99.90;;;;;;5030256;28;20055;-59
2023/10/18 12:05:57;;;;;;;14.32;8.68;;;11.70;99.90;;;;;;5007929;28;20082;-59
2023/10/18 12:08:24;;;;;;;12.95;8.25;;;11.70;99.90;;;;;;5019985;28;20072;-58
2023/10/18 12:10:52;;;;;;;10.07;7.55;;;11.70;99.90;;;;;;5009489;28;20044;-59
2023/10/18 12:13:20;;;;;;;11.05;7.60;;;11.70;99.90;;;;;;5030711;28;20037;-59
2023/10/18 12:15:47;;;;;;;11.98;7.88;;;11.70;99.90;;;;;;5007063;28;20040;-59
2023/10/18 12:18:14;;;;;;;17.75;7.75;;;11.80;99.90;;;;;;4991815;28;21116;-57
2023/10/18 12:20:44;;;;;;;11.75;7.75;;;11.80;99.90;;;;;;5019891;28;20037;-59
2023/10/18 12:23:12;;;;;;;11.98;7.85;;;11.90;99.90;;;;;;5019778;28;20103;-58
2023/10/18 12:25:39;;;;;;;13.27;8.20;;;11.90;99.90;;;;;;5028255;28;20068;-57
2023/10/18 12:28:12;;;;;;;10.88;8.07;;;12.00;99.90;;;;;;5022251;28;20044;-58
2023/10/18 12:30:51;;;;;;;12.80;8.82;;;12.10;99.90;;;;;;5019342;28;20635;-59
2023/10/18 12:33:27;;;;;;;10.55;8.15;;;12.10;99.90;;;;;;5022894;28;20060;-58
2023/10/18 12:35:59;;;;;;;10.95;8.55;;;12.20;99.90;;;;;;5027318;28;20064;-59
2023/10/18 12:38:32;;;;;;;12.05;8.63;;;12.20;99.90;;;;;;5025448;28;21661;-58
2023/10/18 12:41:04;;;;;;;16.08;8.52;;;12.30;99.90;;;;;;5026637;28;20063;-57
2023/10/18 12:43:39;;;;;;;12.52;8.30;;;12.40;99.90;;;;;;5020858;28;20040;-57
2023/10/18 12:46:06;;;;;;;9.75;7.78;;;12.40;99.90;;;;;;5006457;28;20507;-58
2023/10/18 12:48:31;;;;;;;12.63;8.40;;;12.40;99.90;;;;;;5027973;28;20535;-59
2023/10/18 12:50:59;;;;;;;10.88;7.68;;;12.40;99.90;;;;;;5030726;28;20040;-59
2023/10/18 12:55:58;;;;;;;14.40;8.00;;;12.40;99.90;;;;;;5026228;28;20056;-58
2023/10/18 12:58:29;;;;;;;12.70;7.65;;;12.30;99.90;;;;;;5041122;28;20043;-59
2023/10/18 13:01:08;;;;;;;11.68;7.88;;;12.30;99.90;;;;;;5038603;28;20479;-59
2023/10/18 13:03:37;;;;;;;12.68;7.95;;;12.30;99.90;;;;;;5021313;28;20147;-58
2023/10/18 13:06:15;;;;;;;11.35;8.43;;;12.30;99.90;;;;;;5043428;28;20049;-59
2023/10/18 13:08:54;;;;;;;12.60;8.15;;;12.30;99.90;;;;;;5045948;28;20045;-59
2023/10/18 13:14:05;;;;;;;12.13;7.97;;;12.20;99.90;;;;;;5045846;28;20090;-57
2023/10/18 13:16:31;;;;;;;11.57;8.52;;;12.20;99.90;;;;;;5041679;28;20152;-58
2023/10/18 13:18:57;;;;;;;11.43;7.65;;;12.20;99.90;;;;;;5031834;28;20048;-58
2023/10/18 13:21:29;;;;;;;10.50;7.40;;;12.20;99.90;;;;;;5021429;28;20040;-59
2023/10/18 13:24:16;;;;;;;11.48;7.80;;;12.20;99.90;;;;;;5025690;28;20298;-59
2023/10/18 13:26:47;;;;;;;10.57;7.60;;;12.10;99.90;;;;;;5033106;28;20634;-58
2023/10/18 13:31:49;;;;;;;12.60;8.27;;;12.00;99.90;;;;;;5034894;28;20053;-58
2023/10/18 13:34:18;;;;;;;11.07;7.93;;;12.00;99.90;;;;;;5044692;28;20040;-59
2023/10/18 13:36:49;;;;;;;11.85;8.15;;;12.00;99.90;;;;;;5026738;28;20560;-58
2023/10/18 13:39:16;;;;;;;12.40;8.35;;;11.90;99.90;;;;;;5038203;28;20534;-58
2023/10/18 13:41:52;;;;;;;15.02;8.25;;;11.80;99.90;;;;;;5044128;28;20494;-58
2023/10/18 13:44:19;;;;;;;11.90;8.07;;;11.90;99.90;;;;;;5035785;28;20082;-57
2023/10/18 13:46:50;;;;;;;11.85;7.72;;;11.80;99.90;;;;;;5036350;28;20111;-58
2023/10/18 13:49:17;;;;;;;12.35;7.60;;;11.80;99.90;;;;;;5020682;28;20067;-58
2023/10/18 13:51:46;;;;;;;16.25;8.68;;;11.80;99.90;;;;;;5040443;28;21652;-59
2023/10/18 13:54:15;;;;;;;13.35;8.30;;;11.80;99.90;;;;;;5035031;28;20044;-58
2023/10/18 13:56:43;;;;;;;13.32;8.00;;;11.80;99.90;;;;;;5030687;28;20398;-58
2023/10/18 13:59:13;;;;;;;12.85;8.27;;;11.80;99.90;;;;;;5037837;28;20512;-59
2023/10/18 14:01:39;;;;;;;16.83;8.95;;;11.80;99.90;;;;;;5038983;28;20106;-58
2023/10/18 14:04:08;;;;;;;12.38;7.93;;;11.80;99.90;;;;;;5043773;28;20040;-58
2023/10/18 14:06:37;;;;;;;12.27;8.00;;;11.80;99.90;;;;;;5041988;28;20047;-59